createdAt,value
2022-10-14T00:00:45.099Z,94097.69
2022-10-14T00:01:42.368Z,94094.63
2022-10-14T00:02:39.158Z,94054.38
2022-10-14T00:03:37.847Z,94093.13
2022-10-14T00:04:34.448Z,94074.75
2022-10-14T00:05:31.173Z,94084.56
2022-10-14T00:06:30.425Z,94091.28
2022-10-14T00:07:27.007Z,94081.19
2022-10-14T00:08:25.188Z,94091.31
2022-10-14T00:09:22.028Z,94089.41
2022-10-14T00:10:20.801Z,94094.69
2022-10-14T00:11:21.645Z,94081.31
2022-10-14T00:12:18.243Z,94087.84
2022-10-14T00:13:14.778Z,94075.50
2022-10-14T00:14:15.659Z,94078.81
2022-10-14T00:15:12.265Z,94068.00
2022-10-14T00:16:20.696Z,94077.09
2022-10-14T00:17:17.414Z,94084.78
2022-10-14T00:18:14.258Z,94072.75
2022-10-14T00:19:12.709Z,94081.38
2022-10-14T00:20:09.697Z,94063.44
2022-10-14T00:21:06.769Z,94066.72
2022-10-14T00:22:03.486Z,94075.44
2022-10-14T00:23:00.179Z,94069.56
2022-10-14T00:23:57.798Z,94072.34
2022-10-14T00:24:54.547Z,94075.50
2022-10-14T00:25:51.456Z,94053.59
2022-10-14T00:26:48.017Z,94059.91
2022-10-14T00:27:44.647Z,94075.88
2022-10-14T00:28:41.395Z,94053.06
2022-10-14T00:29:38.727Z,94060.59
2022-10-14T00:30:35.285Z,94068.97
2022-10-14T00:31:32.879Z,94040.41
2022-10-14T00:32:29.481Z,94060.25
2022-10-14T00:33:27.001Z,94070.78
2022-10-14T00:34:23.591Z,94066.09
2022-10-14T00:35:20.151Z,94066.97
2022-10-14T00:36:20.130Z,94073.69
2022-10-14T00:37:16.751Z,94075.34
2022-10-14T00:38:13.295Z,94067.25
2022-10-14T00:39:10.499Z,94079.50
2022-10-14T00:40:07.553Z,94071.19
2022-10-14T00:41:04.840Z,94077.66
2022-10-14T00:42:01.600Z,94073.34
2022-10-14T00:42:58.171Z,94023.94
2022-10-14T00:44:13.073Z,94070.25
2022-10-14T00:45:14.283Z,94070.16
2022-10-14T00:46:11.868Z,94060.78
2022-10-14T00:47:08.688Z,94070.50
2022-10-14T00:48:05.803Z,94054.41
2022-10-14T00:49:15.521Z,94071.72
2022-10-14T00:50:13.601Z,94065.34
2022-10-14T00:51:10.683Z,94067.56
2022-10-14T00:52:27.670Z,94072.50
2022-10-14T00:53:24.448Z,94061.97
2022-10-14T00:54:24.375Z,94025.16
2022-10-14T00:55:21.052Z,94069.22
2022-10-14T00:56:27.729Z,94044.81
2022-10-14T00:57:25.859Z,94070.84
2022-10-14T00:58:22.437Z,94076.31
2022-10-14T00:59:19.405Z,94068.34
2022-10-14T01:00:19.128Z,94073.63
2022-10-14T01:01:15.802Z,94073.00
2022-10-14T01:02:12.428Z,94027.38
2022-10-14T01:03:19.873Z,94036.34
2022-10-14T01:04:16.555Z,94061.97
2022-10-14T01:05:15.149Z,94060.06
2022-10-14T01:07:01.039Z,94058.00
2022-10-14T01:08:11.024Z,94064.81
2022-10-14T01:09:13.602Z,94060.00
2022-10-14T01:10:13.057Z,94052.81
2022-10-14T01:11:31.632Z,94051.88
2022-10-14T01:12:40.601Z,94046.81
2022-10-14T01:13:43.591Z,94060.41
2022-10-14T01:14:52.530Z,94055.06
2022-10-14T01:16:10.340Z,94056.47
2022-10-14T01:17:18.524Z,94046.88
2022-10-14T01:18:29.292Z,94050.69
2022-10-14T01:19:59.639Z,94055.94
2022-10-14T01:21:14.813Z,94046.91
2022-10-14T01:22:27.451Z,94042.31
2022-10-14T01:23:49.078Z,94040.00
2022-10-14T01:25:19.884Z,94042.56
2022-10-14T01:26:53.861Z,94039.47
2022-10-14T01:28:21.713Z,94041.03
2022-10-14T01:29:41.214Z,94031.00
2022-10-14T01:30:50.362Z,94032.75
2022-10-14T01:31:57.491Z,94034.72
2022-10-14T01:33:09.877Z,94035.84
2022-10-14T01:34:10.820Z,94031.72
2022-10-14T01:35:23.047Z,94035.22
2022-10-14T01:36:33.768Z,93984.69
2022-10-14T01:37:33.023Z,94032.28
2022-10-14T01:38:34.610Z,94015.88
2022-10-14T01:39:37.949Z,94027.94
2022-10-14T01:40:52.930Z,94033.41
2022-10-14T01:42:02.825Z,94029.00
2022-10-14T01:43:02.529Z,94034.44
2022-10-14T01:44:04.333Z,94025.81
2022-10-14T01:45:09.271Z,94027.94
2022-10-14T01:46:08.221Z,94028.97
2022-10-14T01:47:06.736Z,94033.28
2022-10-14T01:48:06.407Z,94024.66
2022-10-14T01:49:09.830Z,94018.25
2022-10-14T01:50:15.226Z,94024.97
2022-10-14T01:51:17.818Z,94004.25
2022-10-14T01:52:20.062Z,94023.47
2022-10-14T01:53:42.308Z,94022.13
2022-10-14T01:54:42.898Z,94023.91
2022-10-14T01:55:43.612Z,94027.00
2022-10-14T01:56:43.382Z,94019.47
2022-10-14T01:57:43.284Z,94001.25
2022-10-14T01:58:41.199Z,94001.16
2022-10-14T01:59:40.312Z,94013.75
2022-10-14T02:00:38.229Z,94018.50
2022-10-14T02:01:36.698Z,94014.13
2022-10-14T02:02:37.251Z,94008.16
2022-10-14T02:03:45.939Z,94021.25
2022-10-14T02:04:42.622Z,94008.00
2022-10-14T02:05:47.242Z,94010.31
2022-10-14T02:06:54.819Z,94026.50
2022-10-14T02:08:11.873Z,94025.06
2022-10-14T02:09:35.340Z,93994.84
2022-10-14T02:10:34.675Z,94025.72
2022-10-14T02:11:37.915Z,94020.25
2022-10-14T02:12:43.510Z,94019.47
2022-10-14T02:14:15.162Z,93957.69
2022-10-14T02:15:39.730Z,94021.50
2022-10-14T02:16:48.976Z,94007.63
2022-10-14T02:17:48.359Z,94026.44
2022-10-14T02:19:30.249Z,94013.09
2022-10-14T02:20:35.294Z,93996.16
2022-10-14T02:21:40.048Z,93979.53
2022-10-14T02:22:47.374Z,93974.38
2022-10-14T02:23:53.467Z,93972.63
2022-10-14T02:24:56.570Z,94007.75
2022-10-14T02:25:54.908Z,93997.38
2022-10-14T02:26:55.672Z,94013.16
2022-10-14T02:27:54.440Z,94011.53
2022-10-14T02:28:53.437Z,93999.59
2022-10-14T02:29:52.263Z,94009.56
2022-10-14T02:31:14.648Z,94004.88
2022-10-14T02:32:15.239Z,94000.91
2022-10-14T02:33:12.726Z,93980.84
2022-10-14T02:34:13.680Z,94005.06
2022-10-14T02:35:12.583Z,93993.22
2022-10-14T02:36:12.605Z,93991.00
2022-10-14T02:37:10.404Z,93994.00
2022-10-14T02:38:08.627Z,93984.78
2022-10-14T02:39:07.938Z,94002.78
2022-10-14T02:40:11.897Z,94000.91
2022-10-14T02:41:13.930Z,93996.56
2022-10-14T02:42:10.622Z,93990.56
2022-10-14T02:43:10.150Z,94001.44
2022-10-14T02:44:06.870Z,93997.31
2022-10-14T02:45:03.736Z,93993.25
2022-10-14T02:46:03.222Z,93995.72
2022-10-14T02:46:59.805Z,93995.53
2022-10-14T02:47:56.413Z,93991.41
2022-10-14T02:48:52.976Z,93995.28
2022-10-14T02:49:49.717Z,93997.47
2022-10-14T02:50:46.383Z,93994.75
2022-10-14T02:51:42.950Z,93995.72
2022-10-14T02:52:39.523Z,93995.81
2022-10-14T02:53:36.101Z,93974.31
2022-10-14T02:54:32.817Z,93994.06
2022-10-14T02:55:29.801Z,93992.97
2022-10-14T02:56:26.392Z,93989.72
2022-10-14T02:57:22.984Z,93994.97
2022-10-14T02:58:19.629Z,93922.97
2022-10-14T02:59:16.216Z,93983.16
2022-10-14T03:00:13.279Z,93998.91
2022-10-14T03:01:09.927Z,93987.25
2022-10-14T03:02:07.628Z,93989.25
2022-10-14T03:03:04.334Z,93986.44
2022-10-14T03:04:00.907Z,93973.22
2022-10-14T03:04:58.197Z,93992.09
2022-10-14T03:05:54.747Z,93979.66
2022-10-14T03:06:51.347Z,93965.88
2022-10-14T03:07:47.936Z,94001.69
2022-10-14T03:08:44.529Z,93979.41
2022-10-14T03:09:41.078Z,93990.78
2022-10-14T03:10:37.635Z,93992.09
2022-10-14T03:11:34.182Z,93992.88
2022-10-14T03:12:30.738Z,93991.38
2022-10-14T03:13:27.320Z,93952.09
2022-10-14T03:14:24.112Z,93993.28
2022-10-14T03:15:21.003Z,93990.75
2022-10-14T03:16:17.587Z,93979.22
2022-10-14T03:17:14.356Z,93988.47
2022-10-14T03:18:10.980Z,93988.31
2022-10-14T03:19:07.637Z,93986.69
2022-10-14T03:20:07.739Z,93989.25
2022-10-14T03:21:04.377Z,93983.31
2022-10-14T03:22:01.239Z,93990.22
2022-10-14T03:22:57.912Z,93993.06
2022-10-14T03:23:54.548Z,93987.25
2022-10-14T03:24:51.146Z,93990.56
2022-10-14T03:25:47.824Z,93985.25
2022-10-14T03:26:44.441Z,93941.78
2022-10-14T03:27:41.112Z,93981.50
2022-10-14T03:28:37.721Z,93980.69
2022-10-14T03:29:34.329Z,93982.81
2022-10-14T03:30:31.423Z,93978.34
2022-10-14T03:31:28.024Z,93982.59
2022-10-14T03:32:24.721Z,93959.00
2022-10-14T03:33:24.543Z,93932.94
2022-10-14T03:34:22.525Z,93979.91
2022-10-14T03:35:19.265Z,93982.22
2022-10-14T03:36:15.858Z,93980.81
2022-10-14T03:37:12.486Z,93981.69
2022-10-14T03:38:09.078Z,93973.59
2022-10-14T03:39:05.652Z,93981.47
2022-10-14T03:40:02.213Z,93975.03
2022-10-14T03:40:58.787Z,93970.41
2022-10-14T03:41:55.418Z,93982.59
2022-10-14T03:42:51.978Z,93982.75
2022-10-14T03:43:48.535Z,93977.44
2022-10-14T03:44:46.269Z,93978.28
2022-10-14T03:45:45.349Z,93957.81
2022-10-14T03:46:41.944Z,93978.25
2022-10-14T03:47:38.606Z,93973.56
2022-10-14T03:48:35.201Z,93968.66
2022-10-14T03:49:31.795Z,93978.06
2022-10-14T03:50:28.638Z,93970.28
2022-10-14T03:51:25.358Z,93976.31
2022-10-14T03:52:22.441Z,93979.38
2022-10-14T03:53:19.249Z,93969.34
2022-10-14T03:54:15.989Z,93980.41
2022-10-14T03:55:12.792Z,93975.94
2022-10-14T03:56:09.362Z,93979.66
2022-10-14T03:57:05.946Z,93977.81
2022-10-14T03:58:02.513Z,93972.59
2022-10-14T03:58:59.105Z,93972.47
2022-10-14T03:59:55.699Z,93977.44
2022-10-14T04:00:52.354Z,93974.22
2022-10-14T04:01:49.055Z,93976.66
2022-10-14T04:02:45.675Z,93966.84
2022-10-14T04:03:42.320Z,93971.38
2022-10-14T04:04:39.395Z,93954.00
2022-10-14T04:05:36.296Z,93971.88
2022-10-14T04:06:33.049Z,93949.91
2022-10-14T04:07:29.666Z,93967.75
2022-10-14T04:08:26.326Z,93960.47
2022-10-14T04:09:22.950Z,93970.94
2022-10-14T04:10:19.703Z,93954.41
2022-10-14T04:11:17.308Z,93957.38
2022-10-14T04:12:13.889Z,93963.03
2022-10-14T04:13:10.886Z,93930.19
2022-10-14T04:14:07.489Z,93965.78
2022-10-14T04:15:04.391Z,93963.72
2022-10-14T04:16:09.109Z,93962.75
2022-10-14T04:17:05.711Z,93960.94
2022-10-14T04:18:02.419Z,93952.50
2022-10-14T04:18:59.097Z,93954.94
2022-10-14T04:19:55.694Z,93957.19
2022-10-14T04:20:52.332Z,93952.97
2022-10-14T04:21:48.924Z,93962.47
2022-10-14T04:22:46.013Z,93951.63
2022-10-14T04:23:42.773Z,93919.00
2022-10-14T04:24:39.397Z,93959.91
2022-10-14T04:25:38.802Z,93955.47
2022-10-14T04:26:35.509Z,93886.69
2022-10-14T04:27:32.419Z,93950.25
2022-10-14T04:28:29.088Z,93952.03
2022-10-14T04:29:25.863Z,93951.81
2022-10-14T04:30:22.593Z,93869.59
2022-10-14T04:31:19.171Z,93956.44
2022-10-14T04:32:15.867Z,93953.84
2022-10-14T04:33:12.525Z,93946.38
2022-10-14T04:34:10.359Z,93947.19
2022-10-14T04:35:07.908Z,93949.63
2022-10-14T04:36:06.376Z,93945.63
2022-10-14T04:37:03.381Z,93919.53
2022-10-14T04:38:00.025Z,93946.47
2022-10-14T04:38:56.657Z,93947.19
2022-10-14T04:39:53.236Z,93942.16
2022-10-14T04:40:49.773Z,93941.47
2022-10-14T04:41:46.367Z,93940.31
2022-10-14T04:42:42.968Z,93904.16
2022-10-14T04:43:39.555Z,93940.44
2022-10-14T04:44:36.164Z,93908.00
2022-10-14T04:45:32.728Z,93942.47
2022-10-14T04:46:29.801Z,93948.69
2022-10-14T04:47:26.388Z,93943.16
2022-10-14T04:48:23.007Z,93945.72
2022-10-14T04:49:19.639Z,93953.72
2022-10-14T04:50:17.111Z,93947.06
2022-10-14T04:51:13.986Z,93941.59
2022-10-14T04:52:10.598Z,93942.00
2022-10-14T04:53:13.089Z,93949.34
2022-10-14T04:54:10.544Z,93922.16
2022-10-14T04:55:07.546Z,93946.31
2022-10-14T04:56:04.302Z,93950.81
2022-10-14T04:57:01.127Z,93951.97
2022-10-14T04:57:57.702Z,93947.81
2022-10-14T04:58:54.340Z,93948.03
2022-10-14T04:59:50.894Z,93933.50
2022-10-14T05:00:47.475Z,93950.22
2022-10-14T05:01:44.067Z,93953.44
2022-10-14T05:02:40.712Z,93949.59
2022-10-14T05:03:37.345Z,93953.47
2022-10-14T05:04:33.900Z,93943.50
2022-10-14T05:05:30.623Z,93922.97
2022-10-14T05:06:27.590Z,93931.50
2022-10-14T05:07:24.221Z,93946.56
2022-10-14T05:08:20.967Z,93944.34
2022-10-14T05:09:17.559Z,93943.94
2022-10-14T05:10:14.271Z,93942.97
2022-10-14T05:11:10.888Z,93942.19
2022-10-14T05:12:07.537Z,93938.81
2022-10-14T05:13:04.422Z,93950.00
2022-10-14T05:14:01.076Z,93947.41
2022-10-14T05:14:58.360Z,93918.75
2022-10-14T05:15:55.149Z,93928.66
2022-10-14T05:16:51.767Z,93944.59
2022-10-14T05:17:48.425Z,93924.31
2022-10-14T05:18:45.011Z,93945.44
2022-10-14T05:19:41.588Z,93943.16
2022-10-14T05:20:38.734Z,93935.53
2022-10-14T05:21:35.701Z,93937.16
2022-10-14T05:22:32.386Z,93941.81
2022-10-14T05:23:28.968Z,93938.81
2022-10-14T05:24:25.873Z,93940.88
2022-10-14T05:25:22.477Z,93945.44
2022-10-14T05:26:19.119Z,93940.31
2022-10-14T05:27:15.771Z,93936.53
2022-10-14T05:28:12.334Z,93945.19
2022-10-14T05:29:10.803Z,93906.25
2022-10-14T05:30:08.018Z,93947.47
2022-10-14T05:31:05.377Z,93919.97
2022-10-14T05:32:02.023Z,93935.94
2022-10-14T05:32:58.831Z,93940.50
2022-10-14T05:33:55.458Z,93944.88
2022-10-14T05:34:52.098Z,93945.16
2022-10-14T05:36:03.878Z,93948.31
2022-10-14T05:37:00.500Z,93944.22
2022-10-14T05:38:00.719Z,93952.56
2022-10-14T05:39:00.660Z,93954.63
2022-10-14T05:39:57.282Z,93951.13
2022-10-14T05:40:57.872Z,93953.53
2022-10-14T05:41:54.469Z,93953.50
2022-10-14T05:42:51.033Z,93953.69
2022-10-14T05:43:47.642Z,93948.44
2022-10-14T05:44:44.205Z,93956.38
2022-10-14T05:45:40.836Z,93961.28
2022-10-14T05:46:37.655Z,93935.00
2022-10-14T05:47:34.221Z,93959.81
2022-10-14T05:48:32.231Z,93962.22
2022-10-14T05:49:28.823Z,93960.91
2022-10-14T05:50:25.775Z,93959.81
2022-10-14T05:51:23.289Z,93954.63
2022-10-14T05:52:20.243Z,93967.06
2022-10-14T05:53:17.452Z,93960.59
2022-10-14T05:54:14.254Z,93930.84
2022-10-14T05:55:11.027Z,93960.38
2022-10-14T05:56:09.842Z,93959.66
2022-10-14T05:57:06.513Z,93943.41
2022-10-14T05:58:04.028Z,93968.81
2022-10-14T05:59:00.692Z,93964.63
2022-10-14T05:59:57.377Z,93967.81
2022-10-14T06:00:54.093Z,93967.03
2022-10-14T06:01:51.171Z,93958.72
2022-10-14T06:02:47.966Z,93958.31
2022-10-14T06:03:44.733Z,93966.47
2022-10-14T06:04:42.536Z,93966.22
2022-10-14T06:05:39.254Z,93942.28
2022-10-14T06:06:36.012Z,93961.56
2022-10-14T06:07:36.341Z,93975.94
2022-10-14T06:08:33.076Z,93963.69
2022-10-14T06:09:31.321Z,93941.75
2022-10-14T06:10:28.207Z,93972.06
2022-10-14T06:11:24.935Z,93968.97
2022-10-14T06:12:21.996Z,93964.47
2022-10-14T06:13:19.161Z,93976.53
2022-10-14T06:14:15.830Z,93972.22
2022-10-14T06:15:12.596Z,93974.97
2022-10-14T06:16:10.862Z,93939.06
2022-10-14T06:17:08.135Z,93950.31
2022-10-14T06:18:05.100Z,93968.34
2022-10-14T06:19:02.052Z,93935.25
2022-10-14T06:19:58.841Z,93960.25
2022-10-14T06:20:55.835Z,93960.38
2022-10-14T06:21:52.636Z,93972.25
2022-10-14T06:22:49.349Z,93974.38
2022-10-14T06:23:46.230Z,93972.09
2022-10-14T06:24:42.990Z,93969.78
2022-10-14T06:25:40.344Z,93977.25
2022-10-14T06:26:37.295Z,93978.22
2022-10-14T06:27:34.064Z,93975.59
2022-10-14T06:28:30.961Z,93970.13
2022-10-14T06:29:31.861Z,93976.78
2022-10-14T06:30:28.734Z,93979.53
2022-10-14T06:31:29.832Z,93982.69
2022-10-14T06:32:28.842Z,93981.59
2022-10-14T06:33:25.564Z,93975.81
2022-10-14T06:34:24.448Z,93944.06
2022-10-14T06:35:21.338Z,93955.59
2022-10-14T06:36:18.233Z,93954.00
2022-10-14T06:37:14.981Z,93978.13
2022-10-14T06:38:11.688Z,93968.38
2022-10-14T06:39:08.422Z,93975.47
2022-10-14T06:40:05.723Z,93978.00
2022-10-14T06:41:02.487Z,93981.06
2022-10-14T06:41:59.347Z,93978.53
2022-10-14T06:42:58.529Z,93981.78
2022-10-14T06:43:55.318Z,93981.75
2022-10-14T06:44:52.178Z,93966.81
2022-10-14T06:45:49.300Z,93979.63
2022-10-14T06:46:46.204Z,93977.78
2022-10-14T06:47:43.381Z,93984.56
2022-10-14T06:48:40.110Z,93984.72
2022-10-14T06:49:36.787Z,93977.16
2022-10-14T06:50:33.574Z,93983.69
2022-10-14T06:51:30.289Z,93982.75
2022-10-14T06:52:27.033Z,93986.22
2022-10-14T06:53:23.906Z,93975.28
2022-10-14T06:54:21.128Z,93974.19
2022-10-14T06:55:20.098Z,93985.59
2022-10-14T06:56:17.586Z,93980.19
2022-10-14T06:57:14.327Z,93978.41
2022-10-14T06:58:11.287Z,93986.16
2022-10-14T06:59:08.753Z,93979.94
2022-10-14T07:00:07.720Z,93972.69
2022-10-14T07:01:06.003Z,93976.16
2022-10-14T07:02:02.841Z,93981.22
2022-10-14T07:03:00.058Z,93988.72
2022-10-14T07:03:57.018Z,93951.16
2022-10-14T07:04:53.868Z,93976.41
2022-10-14T07:05:50.929Z,93969.03
2022-10-14T07:06:47.914Z,93971.91
2022-10-14T07:07:44.681Z,93973.00
2022-10-14T07:08:42.150Z,93972.50
2022-10-14T07:09:38.995Z,93941.56
2022-10-14T07:10:35.850Z,93973.38
2022-10-14T07:11:32.638Z,93972.03
2022-10-14T07:12:29.441Z,93971.53
2022-10-14T07:13:26.555Z,93974.56
2022-10-14T07:14:23.369Z,93976.88
2022-10-14T07:15:20.158Z,93976.44
2022-10-14T07:16:16.939Z,93956.97
2022-10-14T07:17:13.756Z,93965.97
2022-10-14T07:18:10.472Z,93962.53
2022-10-14T07:19:07.316Z,93984.97
2022-10-14T07:20:04.400Z,93969.34
2022-10-14T07:21:05.402Z,93940.69
2022-10-14T07:22:02.237Z,93981.94
2022-10-14T07:22:59.168Z,93933.84
2022-10-14T07:23:56.062Z,93977.63
2022-10-14T07:24:52.912Z,93966.78
2022-10-14T07:25:49.669Z,93928.03
2022-10-14T07:26:46.588Z,93978.44
2022-10-14T07:27:43.931Z,93944.50
2022-10-14T07:28:41.039Z,93976.78
2022-10-14T07:29:38.079Z,93981.44
2022-10-14T07:30:35.315Z,93983.22
2022-10-14T07:31:32.440Z,93980.16
2022-10-14T07:32:29.196Z,93978.00
2022-10-14T07:33:25.999Z,93937.94
2022-10-14T07:34:22.976Z,93979.91
2022-10-14T07:35:20.302Z,93974.34
2022-10-14T07:36:21.538Z,93972.72
2022-10-14T07:37:19.792Z,93976.56
2022-10-14T07:38:16.781Z,93983.28
2022-10-14T07:39:13.653Z,93951.19
2022-10-14T07:40:11.581Z,93963.31
2022-10-14T07:41:18.714Z,93972.78
2022-10-14T07:42:15.600Z,93969.63
2022-10-14T07:43:12.446Z,93967.50
2022-10-14T07:44:09.972Z,93947.41
2022-10-14T07:45:07.864Z,93963.72
2022-10-14T07:46:07.804Z,93953.91
2022-10-14T07:47:06.702Z,93963.19
2022-10-14T07:48:04.170Z,93966.34
2022-10-14T07:49:11.710Z,93960.25
2022-10-14T07:50:09.100Z,93957.97
2022-10-14T07:51:09.743Z,93965.56
2022-10-14T07:52:06.610Z,93961.56
2022-10-14T07:53:03.823Z,93967.47
2022-10-14T07:54:02.332Z,93964.25
2022-10-14T07:54:59.182Z,93963.69
2022-10-14T07:55:59.413Z,93948.31
2022-10-14T07:56:58.019Z,93950.59
2022-10-14T07:57:54.921Z,93952.19
2022-10-14T07:58:52.598Z,93964.69
2022-10-14T07:59:49.614Z,93935.41
2022-10-14T08:00:46.733Z,93971.47
2022-10-14T08:01:43.753Z,93976.44
2022-10-14T08:02:40.869Z,93962.78
2022-10-14T08:03:37.649Z,93957.47
2022-10-14T08:04:34.469Z,93965.50
2022-10-14T08:05:39.123Z,93964.91
2022-10-14T08:06:38.002Z,93952.63
2022-10-14T08:07:35.942Z,93952.53
2022-10-14T08:08:33.649Z,93954.81
2022-10-14T08:09:31.405Z,93961.56
2022-10-14T08:10:32.364Z,93950.53
2022-10-14T08:11:29.863Z,93961.91
2022-10-14T08:12:26.723Z,93955.94
2022-10-14T08:13:23.623Z,93961.84
2022-10-14T08:14:20.468Z,93944.41
2022-10-14T08:15:17.541Z,93936.72
2022-10-14T08:16:17.655Z,93962.66
2022-10-14T08:17:14.520Z,93958.47
2022-10-14T08:18:12.093Z,93961.31
2022-10-14T08:19:14.400Z,93966.88
2022-10-14T08:20:13.255Z,93965.22
2022-10-14T08:21:11.157Z,93962.34
2022-10-14T08:22:07.997Z,93942.56
2022-10-14T08:23:04.869Z,93963.94
2022-10-14T08:24:01.991Z,93959.69
2022-10-14T08:24:58.806Z,93960.81
2022-10-14T08:25:55.617Z,93957.78
2022-10-14T08:26:55.163Z,93970.69
2022-10-14T08:27:54.154Z,93967.84
2022-10-14T08:28:51.799Z,93964.28
2022-10-14T08:29:48.680Z,93965.81
2022-10-14T08:30:45.649Z,93969.41
2022-10-14T08:31:42.489Z,93967.31
2022-10-14T08:32:39.408Z,93963.84
2022-10-14T08:33:36.251Z,93966.25
2022-10-14T08:34:33.785Z,93976.97
2022-10-14T08:35:30.586Z,93976.75
2022-10-14T08:36:27.739Z,93969.31
2022-10-14T08:37:24.661Z,93970.16
2022-10-14T08:38:25.248Z,93974.47
2022-10-14T08:39:25.145Z,93937.97
2022-10-14T08:40:22.130Z,93961.91
2022-10-14T08:41:43.746Z,93972.56
2022-10-14T08:42:51.206Z,93882.22
2022-10-14T08:44:11.809Z,93969.34
2022-10-14T08:45:19.518Z,93970.94
2022-10-14T08:46:33.763Z,93958.31
2022-10-14T08:47:41.471Z,93972.50
2022-10-14T08:48:39.105Z,93957.66
2022-10-14T08:49:54.738Z,93949.66
2022-10-14T08:50:57.339Z,93961.47
2022-10-14T08:52:14.295Z,93965.44
2022-10-14T08:53:16.552Z,93962.84
2022-10-14T08:54:25.479Z,93936.16
2022-10-14T08:55:51.695Z,93961.59
2022-10-14T08:56:48.707Z,93953.16
2022-10-14T08:57:52.898Z,93962.16
2022-10-14T08:58:52.680Z,93937.72
2022-10-14T08:59:49.558Z,93953.13
2022-10-14T09:00:49.898Z,93958.13
2022-10-14T09:02:25.658Z,93960.34
2022-10-14T09:03:22.539Z,93958.38
2022-10-14T09:04:20.194Z,93951.94
2022-10-14T09:05:26.569Z,93957.41
2022-10-14T09:06:32.020Z,93959.47
2022-10-14T09:07:30.928Z,93954.63
2022-10-14T09:08:42.193Z,93947.44
2022-10-14T09:09:42.469Z,93959.84
2022-10-14T09:10:42.481Z,93954.84
2022-10-14T09:11:43.945Z,93953.31
2022-10-14T09:12:47.884Z,93918.13
2022-10-14T09:13:49.425Z,93949.78
2022-10-14T09:14:49.313Z,93953.28
2022-10-14T09:15:50.552Z,93947.94
2022-10-14T09:16:54.178Z,93944.88
2022-10-14T09:18:07.246Z,93922.50
2022-10-14T09:19:12.314Z,93945.97
2022-10-14T09:20:11.882Z,93955.09
2022-10-14T09:21:51.778Z,93940.84
2022-10-14T09:22:58.324Z,93913.47
2022-10-14T09:24:14.705Z,93942.53
2022-10-14T09:25:18.454Z,93946.38
2022-10-14T09:26:20.194Z,93937.91
2022-10-14T09:27:26.936Z,93948.28
2022-10-14T09:28:32.724Z,93947.13
2022-10-14T09:29:34.231Z,93949.03
2022-10-14T09:30:39.079Z,93949.03
2022-10-14T09:31:35.960Z,93940.63
2022-10-14T09:33:05.652Z,93941.41
2022-10-14T09:34:02.590Z,93950.25
2022-10-14T09:35:02.764Z,93947.19
2022-10-14T09:37:27.053Z,93905.13
2022-10-14T09:38:28.757Z,93939.84
2022-10-14T09:39:25.686Z,93941.00
2022-10-14T09:40:31.111Z,93932.91
2022-10-14T09:41:31.152Z,93936.38
2022-10-14T09:42:44.692Z,93916.31
2022-10-14T09:44:21.992Z,93951.00
2022-10-14T09:45:22.763Z,93947.19
2022-10-14T09:46:19.895Z,93947.56
2022-10-14T09:47:19.184Z,93928.66
2022-10-14T09:48:29.090Z,93940.25
2022-10-14T09:49:39.104Z,93942.53
2022-10-14T09:50:47.051Z,93929.44
2022-10-14T09:51:44.079Z,93937.13
2022-10-14T09:52:40.941Z,93940.59
2022-10-14T09:53:47.145Z,93905.53
2022-10-14T09:54:46.835Z,93933.28
2022-10-14T09:55:54.363Z,93940.22
2022-10-14T09:57:00.054Z,93945.59
2022-10-14T09:58:04.253Z,93942.16
2022-10-14T09:59:02.185Z,93944.84
2022-10-14T10:00:01.254Z,93944.09
2022-10-14T10:01:00.522Z,93946.81
2022-10-14T10:02:01.301Z,93934.44
2022-10-14T10:02:58.490Z,93932.16
2022-10-14T10:04:00.095Z,93938.69
2022-10-14T10:04:57.357Z,93936.00
2022-10-14T10:06:12.134Z,93931.75
2022-10-14T10:07:24.525Z,93913.59
2022-10-14T10:08:21.938Z,93933.22
2022-10-14T10:09:21.990Z,93936.19
2022-10-14T10:10:24.730Z,93941.59
2022-10-14T10:11:38.945Z,93931.16
2022-10-14T10:12:36.156Z,93939.09
2022-10-14T10:13:48.246Z,93929.47
2022-10-14T10:14:56.789Z,93940.28
2022-10-14T10:16:05.518Z,93934.84
2022-10-14T10:17:08.141Z,93934.41
2022-10-14T10:18:19.074Z,93934.16
2022-10-14T10:19:25.130Z,93937.63
2022-10-14T10:20:45.460Z,93933.66
2022-10-14T10:21:42.371Z,93907.06
2022-10-14T10:22:42.475Z,93909.03
2022-10-14T10:23:50.672Z,93930.88
2022-10-14T10:24:48.397Z,93909.53
2022-10-14T10:25:45.224Z,93922.75
2022-10-14T10:26:41.814Z,93926.69
2022-10-14T10:27:45.931Z,93926.69
2022-10-14T10:28:47.949Z,93924.13
2022-10-14T10:29:44.659Z,93920.00
2022-10-14T10:31:07.001Z,93919.22
2022-10-14T10:32:09.884Z,93922.38
2022-10-14T10:33:21.587Z,93926.56
2022-10-14T10:34:37.782Z,93922.28
2022-10-14T10:35:58.755Z,93887.56
2022-10-14T10:37:26.297Z,93927.00
2022-10-14T10:38:30.977Z,93925.53
2022-10-14T10:40:08.798Z,93918.84
2022-10-14T10:41:37.248Z,93903.44
2022-10-14T10:42:43.390Z,93911.53
2022-10-14T10:43:46.037Z,93917.38
2022-10-14T10:45:00.259Z,93906.97
2022-10-14T10:46:11.662Z,93913.53
2022-10-14T10:47:36.043Z,93907.41
2022-10-14T10:48:47.477Z,93873.75
2022-10-14T10:49:47.310Z,93906.91
2022-10-14T10:50:48.718Z,93900.78
2022-10-14T10:52:28.458Z,93897.72
2022-10-14T10:53:29.684Z,93914.75
2022-10-14T10:55:01.904Z,93904.34
2022-10-14T10:56:25.788Z,93899.63
2022-10-14T10:57:48.670Z,93900.88
2022-10-14T10:58:56.546Z,93892.41
2022-10-14T11:00:17.146Z,93902.66
2022-10-14T11:01:14.714Z,93905.38
2022-10-14T11:02:38.240Z,93905.81
2022-10-14T11:03:43.889Z,93897.72
2022-10-14T11:04:43.258Z,93895.41
2022-10-14T11:06:13.707Z,93900.03
2022-10-14T11:07:47.076Z,93891.66
2022-10-14T11:09:24.663Z,93895.50
2022-10-14T11:10:50.028Z,93892.84
2022-10-14T11:12:17.769Z,93892.41
2022-10-14T11:13:38.118Z,93889.72
2022-10-14T11:15:20.072Z,93890.91
2022-10-14T11:16:16.841Z,93886.25
2022-10-14T11:17:28.405Z,93887.78
2022-10-14T11:18:28.119Z,93885.09
2022-10-14T11:19:34.090Z,93887.00
2022-10-14T11:20:42.117Z,93869.19
2022-10-14T11:21:38.761Z,93877.38
2022-10-14T11:22:47.069Z,93872.34
2022-10-14T11:23:46.185Z,93865.81
2022-10-14T11:25:22.842Z,93871.97
2022-10-14T11:26:41.663Z,93860.00
2022-10-14T11:27:57.799Z,93857.69
2022-10-14T11:29:03.603Z,93864.66
2022-10-14T11:30:18.740Z,93857.34
2022-10-14T11:31:26.977Z,93861.94
2022-10-14T11:32:57.488Z,93858.13
2022-10-14T11:34:19.571Z,93855.06
2022-10-14T11:36:44.378Z,93855.44
2022-10-14T11:37:53.268Z,93853.84
2022-10-14T11:39:04.737Z,93849.97
2022-10-14T11:40:24.503Z,93860.78
2022-10-14T11:41:46.084Z,93854.59
2022-10-14T11:43:28.911Z,93856.16
2022-10-14T11:44:36.614Z,93853.84
2022-10-14T11:45:36.002Z,93843.03
2022-10-14T11:46:45.912Z,93836.50
2022-10-14T11:47:47.579Z,93844.63
2022-10-14T11:48:55.860Z,93820.72
2022-10-14T11:50:16.753Z,93843.88
2022-10-14T11:51:22.405Z,93832.69
2022-10-14T11:52:29.088Z,93843.84
2022-10-14T11:53:58.610Z,93842.28
2022-10-14T11:55:03.264Z,93835.28
2022-10-14T11:56:09.603Z,93826.13
2022-10-14T11:57:26.363Z,93840.38
2022-10-14T11:58:26.763Z,93812.66
2022-10-14T11:59:38.358Z,93837.69
2022-10-14T12:00:56.147Z,93844.63
2022-10-14T12:02:00.752Z,93839.25
2022-10-14T12:03:25.924Z,93840.41
2022-10-14T12:04:30.783Z,93838.47
2022-10-14T12:06:02.259Z,93804.16
2022-10-14T12:07:25.085Z,93840.00
2022-10-14T12:08:53.367Z,93836.53